CST,Max TemperatureF,Mean TemperatureF,Min TemperatureF,Max Dew PointF,MeanDew PointF,Min DewpointF,Max Humidity, Mean Humidity, Min Humidity, Max Sea Level PressureIn, Mean Sea Level PressureIn, Min Sea Level PressureIn, Max VisibilityMiles, Mean VisibilityMiles, Min VisibilityMiles, Max Wind SpeedMPH, Mean Wind SpeedMPH, Max Gust SpeedMPH,PrecipitationIn, CloudCover, Events, WindDirDegrees
2013-1-1,56,50,43,54,45,36,96,84,71,30.25,30.11,29.97,10,9,3,20,12,24,0.40,7,Rain,2
2013-1-2,44,41,37,35,32,30,79,69,58,30.33,30.28,30.25,10,10,8,16,9,21,0.00,2,,353
2013-1-3,50,41,31,34,31,29,89,68,46,30.44,30.39,30.33,10,9,5,14,7,17,T,5,Rain,359
2013-1-4,46,43,40,41,37,31,96,75,53,30.53,30.44,30.39,10,10,9,13,7,16,0.19,8,Rain,8
2013-1-5,48,41,34,43,39,34,96,89,82,30.39,30.31,30.26,10,8,1,8,3,10,0.11,6,Rain,51
2013-1-6,59,46,33,43,36,30,100,74,47,30.39,30.33,30.29,10,4,0,13,5,16,0.00,3,Fog,359
2013-1-7,57,45,33,42,35,29,82,63,43,30.32,30.23,30.10,10,10,10,12,5,17,0.00,1,,75
2013-1-8,61,55,49,61,53,42,100,86,71,30.07,29.97,29.88,10,5,0,24,6,32,1.10,8,Fog-Rain-Thunderstorm,79
2013-1-9,66,63,60,63,61,59,100,94,87,30.02,29.94,29.86,10,6,2,24,11,31,3.00,8,Rain-Thunderstorm,95
2013-1-10,64,58,51,59,50,44,100,76,52,30.06,30.01,29.98,10,10,7,16,6,20,0.00,1,,217
2013-1-11,75,61,46,65,56,43,93,76,59,30.03,29.91,29.84,10,9,2,21,9,26,0.00,4,,170
2013-1-12,73,60,46,70,65,41,100,90,77,29.85,29.78,29.69,10,8,2,20,11,33,0.03,8,Rain,169
2013-1-13,52,46,39,41,34,30,85,68,50,30.18,30.04,29.86,10,10,10,25,18,31,0.04,5,Rain-Thunderstorm,347
2013-1-14,50,43,35,34,31,27,75,66,56,30.26,30.18,30.14,10,10,10,20,13,24,T,6,Rain-Thunderstorm,20
2013-1-15,40,38,35,34,33,30,92,81,70,30.20,30.13,30.09,10,8,4,22,12,26,T,8,Rain-Snow,2
2013-1-16,49,41,33,31,25,19,82,58,34,30.33,30.26,30.20,10,10,10,16,7,22,0.00,2,,318
2013-1-17,65,48,30,37,30,24,85,59,32,30.48,30.39,30.28,10,10,10,16,5,22,0.00,0,,351
2013-1-18,64,52,39,38,34,32,76,54,32,30.52,30.43,30.35,10,10,10,14,7,20,0.00,0,,129
2013-1-19,68,53,38,45,40,33,89,65,40,30.34,30.26,30.18,10,10,10,7,5,8,0.00,0,,172
2013-1-20,71,56,41,52,45,39,100,72,44,30.27,30.20,30.11,10,6,0,14,4,17,0.00,2,Fog,176
2013-1-21,72,58,44,50,46,37,100,65,29,30.25,30.19,30.14,10,6,0,10,4,16,0.00,0,Fog,280
2013-1-22,72,57,42,51,46,40,89,68,47,30.32,30.25,30.21,10,10,9,13,5,20,0.00,2,,152
2013-1-23,75,63,50,58,53,49,100,75,49,30.34,30.27,30.21,10,6,0,16,7,20,0.00,2,,174
2013-1-24,79,69,58,63,60,57,100,77,54,30.26,30.19,30.10,10,8,2,18,9,23,0.00,4,,196
2013-1-25,79,70,61,62,60,55,87,71,54,30.16,30.10,30.03,10,10,10,17,9,23,0.00,6,,201
2013-1-26,76,65,54,61,56,52,100,75,50,30.19,30.13,30.06,10,8,3,15,5,17,0.02,5,Rain,225
2013-1-27,79,69,59,65,62,58,97,78,58,30.11,30.06,29.99,10,10,10,24,14,31,0.00,4,,165
2013-1-28,82,76,69,68,65,60,90,69,47,30.07,30.01,29.91,10,10,7,25,16,33,T,7,Rain,172
2013-1-29,80,69,57,68,62,49,97,82,67,29.90,29.73,29.54,10,10,6,31,16,44,0.17,8,Rain-Thunderstorm,196
2013-1-30,58,48,37,38,30,23,70,49,27,30.21,30.01,29.78,10,10,10,29,10,40,0.00,2,,293
2013-1-31,66,50,33,34,27,20,82,49,16,30.30,30.24,30.19,10,10,10,18,6,25,0.00,0,,202